Time;durP1;ratioP1;P1;durP2;ratioP2;P2;SDS_P1;SDS_P2;PMS_P1;PMS_P2;Temp;Humidity;BMP_temperature;BMP_pressure;BME280_temperature;BME280_humidity;BME280_pressure;Samples;Min_cycle;Max_cycle;Signal;HPM_P1;HPM_P2
2023/12/04 00:02:15;;;;;;;29.17;10.95;;;;;;;-0.69;100.00;101200.66;4985892;28;20042;-79
2023/12/04 00:04:40;;;;;;;32.83;13.48;;;;;;;-0.73;100.00;101188.59;4985088;28;20034;-79
2023/12/04 00:07:05;;;;;;;29.75;12.98;;;;;;;-0.71;100.00;101191.88;4981543;28;20085;-79
2023/12/04 00:09:31;;;;;;;30.65;12.60;;;;;;;-0.73;100.00;101185.88;4988111;28;20045;-80
2023/12/04 00:11:56;;;;;;;30.25;13.85;;;;;;;-0.74;100.00;101194.22;4976053;28;20023;-79
2023/12/04 00:14:21;;;;;;;28.80;11.52;;;;;;;-0.72;100.00;101184.81;4981975;28;20100;-80
2023/12/04 00:16:46;;;;;;;31.23;12.73;;;;;;;-0.69;100.00;101184.34;4987743;28;20057;-80
2023/12/04 00:19:12;;;;;;;30.33;12.07;;;;;;;-0.62;100.00;101184.28;4987249;28;20054;-80
2023/12/04 00:21:37;;;;;;;34.15;13.63;;;;;;;-0.64;100.00;101184.53;4988048;28;20468;-80
2023/12/04 00:24:04;;;;;;;32.35;13.15;;;;;;;-0.58;100.00;101182.81;4987746;28;20038;-80
2023/12/04 00:26:29;;;;;;;28.73;11.82;;;;;;;-0.57;100.00;101181.75;4972895;28;20033;-80
2023/12/04 00:28:54;;;;;;;30.63;12.57;;;;;;;-0.58;100.00;101171.94;4987596;28;20050;-80
2023/12/04 00:31:20;;;;;;;30.85;11.93;;;;;;;-0.55;100.00;101178.81;4989003;28;20084;-80
2023/12/04 00:33:51;;;;;;;29.63;11.68;;;;;;;-0.50;100.00;101174.38;4978841;28;20121;-80
2023/12/04 00:36:16;;;;;;;32.70;14.02;;;;;;;-0.45;100.00;101179.13;4985177;28;20496;-79
2023/12/04 00:38:41;;;;;;;30.55;12.13;;;;;;;-0.45;100.00;101172.84;4996361;28;20030;-79
2023/12/04 00:41:07;;;;;;;29.00;12.05;;;;;;;-0.50;100.00;101168.94;4995592;28;20046;-80
2023/12/04 00:43:32;;;;;;;31.48;12.15;;;;;;;-0.51;100.00;101156.41;4984900;28;20034;-80
2023/12/04 00:45:57;;;;;;;31.10;12.93;;;;;;;-0.50;100.00;101155.34;4990931;28;20059;-80
2023/12/04 00:48:22;;;;;;;31.27;12.30;;;;;;;-0.49;100.00;101157.00;4976261;28;20093;-80
2023/12/04 00:50:51;;;;;;;29.55;11.63;;;;;;;-0.51;100.00;101152.81;4991370;28;20508;-80
2023/12/04 00:53:16;;;;;;;32.30;12.30;;;;;;;-0.53;100.00;101158.50;4981831;28;20038;-81
2023/12/04 00:55:41;;;;;;;33.72;15.13;;;;;;;-0.53;100.00;101158.50;4983306;28;20034;-80
2023/12/04 00:58:07;;;;;;;27.42;10.43;;;;;;;-0.49;100.00;101153.44;4988382;28;20053;-81
2023/12/04 01:00:32;;;;;;;29.55;12.48;;;;;;;-0.53;100.00;101141.38;4990319;28;20388;-80
2023/12/04 01:02:57;;;;;;;30.17;12.35;;;;;;;-0.53;100.00;101152.25;4990726;28;20136;-81
2023/12/04 01:05:22;;;;;;;30.25;11.60;;;;;;;-0.56;100.00;101133.66;4990494;28;20034;-80
2023/12/04 01:07:48;;;;;;;29.83;11.88;;;;;;;-0.56;100.00;101139.91;4979077;28;20038;-81
2023/12/04 01:10:13;;;;;;;29.52;10.93;;;;;;;-0.53;100.00;101135.94;4988320;28;20038;-80
2023/12/04 01:12:41;;;;;;;29.92;11.98;;;;;;;-0.52;100.00;101130.25;4990572;28;20393;-80
2023/12/04 01:15:09;;;;;;;30.33;12.23;;;;;;;-0.54;100.00;101132.38;4987477;28;20038;-81
2023/12/04 01:17:35;;;;;;;28.95;10.80;;;;;;;-0.56;100.00;101128.22;4990743;28;20485;-81
2023/12/04 01:20:00;;;;;;;27.98;10.95;;;;;;;-0.57;100.00;101127.41;4990023;28;20516;-80
2023/12/04 01:22:26;;;;;;;30.63;11.25;;;;;;;-0.57;100.00;101127.41;4990192;28;20041;-81
2023/12/04 01:24:54;;;;;;;31.00;11.32;;;;;;;-0.55;100.00;101127.16;4990192;28;20031;-81
2023/12/04 01:27:19;;;;;;;28.90;11.32;;;;;;;-0.58;100.00;101120.31;4979033;28;20065;-80
2023/12/04 01:29:47;;;;;;;30.27;11.48;;;;;;;-0.59;100.00;101112.34;4989812;28;20089;-80
2023/12/04 01:32:12;;;;;;;30.98;11.45;;;;;;;-0.57;100.00;101121.13;4986370;28;20030;-80
2023/12/04 01:34:37;;;;;;;30.90;12.00;;;;;;;-0.56;100.00;101107.28;4982444;28;20386;-80
2023/12/04 01:37:03;;;;;;;30.35;11.55;;;;;;;-0.54;100.00;101110.63;4989759;28;20840;-79
2023/12/04 01:39:28;;;;;;;28.27;10.85;;;;;;;-0.49;100.00;101105.38;4989783;28;20377;-80
2023/12/04 01:41:53;;;;;;;28.58;11.20;;;;;;;-0.52;100.00;101094.94;4989371;28;20073;-80
2023/12/04 01:44:19;;;;;;;29.23;11.45;;;;;;;-0.53;100.00;101106.03;4980145;28;20105;-79
2023/12/04 01:46:44;;;;;;;29.02;11.32;;;;;;;-0.54;100.00;101099.75;4990330;28;20034;-79
2023/12/04 01:49:10;;;;;;;28.33;11.05;;;;;;;-0.52;100.00;101105.00;4989260;28;20109;-79
2023/12/04 01:51:35;;;;;;;27.27;10.32;;;;;;;-0.55;100.00;101098.09;4990264;28;20046;-80
2023/12/04 01:54:04;;;;;;;26.60;10.20;;;;;;;-0.55;100.00;101100.00;4984338;28;20026;-79
2023/12/04 01:56:30;;;;;;;28.27;10.85;;;;;;;-0.53;100.00;101095.97;4988969;28;20108;-78
2023/12/04 01:58:55;;;;;;;29.90;12.27;;;;;;;-0.50;100.00;101100.13;4988065;28;20057;-79
2023/12/04 02:01:22;;;;;;;28.70;11.55;;;;;;;-0.48;100.00;101095.31;4980390;28;20120;-79
2023/12/04 02:03:47;;;;;;;29.25;10.48;;;;;;;-0.48;100.00;101101.59;4984728;28;20037;-79
2023/12/04 02:06:13;;;;;;;28.85;11.25;;;;;;;-0.49;100.00;101086.34;4989451;28;20023;-79
2023/12/04 02:08:40;;;;;;;27.42;10.38;;;;;;;-0.45;100.00;101081.28;4980207;28;20031;-79
2023/12/04 02:11:06;;;;;;;29.55;11.73;;;;;;;-0.51;100.00;101072.13;4974865;28;20121;-79
2023/12/04 02:13:31;;;;;;;30.08;11.13;;;;;;;-0.50;100.00;101073.81;4985160;28;20481;-78
2023/12/04 02:16:01;;;;;;;30.63;10.88;;;;;;;-0.51;100.00;101068.56;4986964;28;20465;-79
2023/12/04 02:18:27;;;;;;;28.00;10.57;;;;;;;-0.53;100.00;101066.09;4988549;28;20034;-79
2023/12/04 02:20:53;;;;;;;28.27;11.60;;;;;;;-0.50;100.00;101064.78;4989956;28;20045;-79
2023/12/04 02:23:21;;;;;;;27.77;10.52;;;;;;;-0.51;100.00;101058.53;4989451;28;20025;-79
2023/12/04 02:25:46;;;;;;;29.63;11.27;;;;;;;-0.49;100.00;101055.59;4981759;28;20042;-79
2023/12/04 02:28:15;;;;;;;27.83;10.77;;;;;;;-0.52;100.00;101048.72;4976162;28;20043;-79
2023/12/04 02:30:43;;;;;;;29.67;12.88;;;;;;;-0.51;100.00;101049.53;4986254;28;20042;-77
2023/12/04 02:33:11;;;;;;;26.27;10.32;;;;;;;-0.45;100.00;101048.66;4988089;28;20350;-78
2023/12/04 02:35:39;;;;;;;26.08;10.52;;;;;;;-0.45;100.00;101039.66;4989464;28;20145;-78
2023/12/04 02:38:05;;;;;;;25.90;10.05;;;;;;;-0.48;100.00;101033.63;4988423;28;20419;-78
2023/12/04 02:40:30;;;;;;;27.52;10.48;;;;;;;-0.48;100.00;101038.22;4988784;28;20038;-78
2023/12/04 02:42:56;;;;;;;27.50;10.88;;;;;;;-0.48;100.00;101030.06;4988803;28;20088;-78
2023/12/04 02:45:21;;;;;;;26.95;10.75;;;;;;;-0.43;100.00;101038.41;4987342;28;20034;-78
2023/12/04 02:47:46;;;;;;;26.05;10.60;;;;;;;-0.42;100.00;101033.78;4986138;28;20449;-78
2023/12/04 02:50:12;;;;;;;27.80;10.77;;;;;;;-0.41;100.00;101019.94;4988621;28;20026;-78
2023/12/04 02:52:37;;;;;;;26.95;10.18;;;;;;;-0.38;100.00;101024.94;4987716;28;20062;-78
2023/12/04 02:55:03;;;;;;;25.70;10.02;;;;;;;-0.39;100.00;101027.88;4986562;28;20029;-78
2023/12/04 02:57:28;;;;;;;27.50;9.57;;;;;;;-0.41;100.00;101017.22;4987431;28;20393;-78
2023/12/04 02:59:53;;;;;;;26.35;9.85;;;;;;;-0.49;100.00;101004.78;4975492;28;20035;-78
2023/12/04 03:02:19;;;;;;;29.88;11.02;;;;;;;-0.44;100.00;101011.41;4969613;28;20082;-78
2023/12/04 03:04:45;;;;;;;27.30;9.75;;;;;;;-0.44;100.00;101008.69;4984417;28;20114;-78
2023/12/04 03:07:10;;;;;;;26.00;10.07;;;;;;;-0.46;100.00;101003.50;4987834;28;20045;-78
2023/12/04 03:09:36;;;;;;;26.33;9.07;;;;;;;-0.51;100.00;100990.59;4984787;28;20109;-78
2023/12/04 03:12:01;;;;;;;25.27;9.50;;;;;;;-0.52;100.00;100996.28;4988652;28;20061;-78
2023/12/04 03:14:26;;;;;;;24.73;9.07;;;;;;;-0.51;100.00;100998.75;4984214;28;20418;-77
2023/12/04 03:16:51;;;;;;;28.20;10.57;;;;;;;-0.50;100.00;100992.25;4973528;28;20081;-78
2023/12/04 03:19:20;;;;;;;29.38;10.90;;;;;;;-0.52;100.00;100991.66;4971372;28;20046;-79
2023/12/04 03:21:45;;;;;;;25.85;9.80;;;;;;;-0.55;100.00;100994.00;4968220;28;20031;-79
2023/12/04 03:24:10;;;;;;;25.80;9.32;;;;;;;-0.56;100.00;100978.75;4982115;28;20034;-78
2023/12/04 03:26:36;;;;;;;27.40;9.35;;;;;;;-0.56;100.00;100976.03;4985527;28;20034;-78
2023/12/04 03:29:01;;;;;;;26.23;9.18;;;;;;;-0.57;100.00;100967.06;4975942;28;20578;-78
2023/12/04 03:31:28;;;;;;;24.80;9.05;;;;;;;-0.60;100.00;100964.78;4968786;28;20469;-79
2023/12/04 03:33:53;;;;;;;24.20;8.38;;;;;;;-0.60;100.00;100972.09;4981616;28;20023;-79
2023/12/04 03:36:18;;;;;;;25.30;9.95;;;;;;;-0.63;100.00;100968.81;4968248;28;20162;-79
2023/12/04 03:38:44;;;;;;;26.13;10.07;;;;;;;-0.66;100.00;100955.66;4974347;28;20378;-78
2023/12/04 03:41:15;;;;;;;25.85;8.48;;;;;;;-0.68;100.00;100948.81;4988066;28;20167;-79
2023/12/04 03:43:41;;;;;;;25.42;9.05;;;;;;;-0.63;100.00;100944.34;4975015;28;20038;-79
2023/12/04 03:46:06;;;;;;;25.08;9.23;;;;;;;-0.64;100.00;100945.41;4987979;28;20038;-77
2023/12/04 03:48:32;;;;;;;24.75;9.07;;;;;;;-0.65;100.00;100942.91;4979244;28;20039;-78
2023/12/04 03:50:57;;;;;;;23.77;9.75;;;;;;;-0.67;100.00;100939.59;4968468;28;20051;-78
2023/12/04 03:53:26;;;;;;;24.15;8.25;;;;;;;-0.67;100.00;100942.31;4974024;28;20109;-78
2023/12/04 03:55:51;;;;;;;24.58;8.05;;;;;;;-0.64;100.00;100936.41;4979235;28;20122;-78
2023/12/04 03:58:16;;;;;;;24.98;9.02;;;;;;;-0.67;100.00;100929.53;4970799;28;20055;-78
2023/12/04 04:00:43;;;;;;;23.88;8.18;;;;;;;-0.67;100.00;100926.84;4986374;28;20041;-78
2023/12/04 04:03:12;;;;;;;25.13;8.90;;;;;;;-0.70;100.00;100924.56;4969571;28;20027;-78
2023/12/04 04:05:37;;;;;;;25.17;9.35;;;;;;;-0.71;100.00;100920.19;4971122;28;20064;-78
2023/12/04 04:08:03;;;;;;;27.85;9.02;;;;;;;-0.75;100.00;100915.44;4991901;28;20061;-78
2023/12/04 04:10:28;;;;;;;25.38;8.93;;;;;;;-0.74;100.00;100912.50;4990912;28;20172;-78
2023/12/04 04:13:12;;;;;;;25.95;9.63;;;;;;;-0.74;100.00;100917.09;4991911;28;20030;-78
2023/12/04 04:15:37;;;;;;;26.10;9.50;;;;;;;-0.70;100.00;100905.53;4985507;28;20034;-78
2023/12/04 04:18:02;;;;;;;26.20;9.25;;;;;;;-0.68;100.00;100911.59;4990202;28;20123;-77
2023/12/04 04:20:27;;;;;;;24.60;9.13;;;;;;;-0.71;100.00;100900.34;4990931;28;20374;-78
2023/12/04 04:22:55;;;;;;;24.65;9.77;;;;;;;-0.70;100.00;100902.81;4989916;28;20036;-79
2023/12/04 04:25:23;;;;;;;26.45;10.13;;;;;;;-0.71;100.00;100901.16;4982286;28;20363;-78
2023/12/04 04:27:48;;;;;;;25.40;9.55;;;;;;;-0.73;100.00;100897.03;4972049;28;20351;-78
2023/12/04 04:30:13;;;;;;;23.52;8.23;;;;;;;-0.76;100.00;100897.50;4987068;28;20050;-78
2023/12/04 04:32:39;;;;;;;25.85;9.15;;;;;;;-0.75;100.00;100888.28;4990793;28;20070;-77
2023/12/04 04:35:04;;;;;;;24.73;8.95;;;;;;;-0.77;100.00;100890.41;4986232;28;20032;-77
2023/12/04 04:37:29;;;;;;;25.02;9.50;;;;;;;-0.80;100.00;100884.38;4971372;28;20453;-78
2023/12/04 04:39:58;;;;;;;25.88;9.52;;;;;;;-0.80;100.00;100880.81;4983778;28;20031;-77
2023/12/04 04:42:23;;;;;;;24.55;8.57;;;;;;;-0.79;100.00;100882.47;4996949;28;20070;-78
2023/12/04 04:44:48;;;;;;;25.10;9.73;;;;;;;-0.87;100.00;100872.78;4999263;28;20035;-79
2023/12/04 04:47:14;;;;;;;23.67;8.60;;;;;;;-0.82;100.00;100883.75;4972155;28;20487;-78
2023/12/04 04:49:39;;;;;;;24.17;8.13;;;;;;;-0.81;100.00;100881.91;4986298;28;20066;-78
2023/12/04 04:52:05;;;;;;;25.55;9.48;;;;;;;-0.84;100.00;100877.72;4992336;28;20403;-78
2023/12/04 04:54:33;;;;;;;26.20;9.48;;;;;;;-0.85;100.00;100862.47;4987328;28;20062;-79
2023/12/04 04:56:58;;;;;;;23.23;8.02;;;;;;;-0.79;100.00;100868.88;4975798;28;20533;-79
2023/12/04 04:59:24;;;;;;;25.27;9.13;;;;;;;-0.77;100.00;100874.09;4984977;28;20180;-79
2023/12/04 05:01:52;;;;;;;25.33;8.85;;;;;;;-0.77;100.00;100871.41;4992943;28;20057;-79
2023/12/04 05:04:17;;;;;;;24.48;9.48;;;;;;;-0.75;100.00;100874.69;4986355;28;20112;-79
2023/12/04 05:06:42;;;;;;;24.55;8.32;;;;;;;-0.73;100.00;100873.41;4979369;28;20034;-78
2023/12/04 05:09:08;;;;;;;26.45;10.40;;;;;;;-0.73;100.00;100873.41;4988182;28;20344;-78
2023/12/04 05:11:36;;;;;;;26.02;9.27;;;;;;;-0.70;100.00;100872.13;4974499;28;20106;-79
2023/12/04 05:14:01;;;;;;;24.25;8.10;;;;;;;-0.71;100.00;100867.75;4978674;28;20022;-79
2023/12/04 05:16:27;;;;;;;25.00;9.35;;;;;;;-0.71;100.00;100871.28;4981018;28;20034;-79
2023/12/04 05:18:52;;;;;;;24.25;8.93;;;;;;;-0.68;100.00;100868.09;4983129;28;20011;-79
2023/12/04 05:21:18;;;;;;;23.65;8.45;;;;;;;-0.69;100.00;100862.91;4980702;28;20170;-78
2023/12/04 05:23:43;;;;;;;25.20;8.98;;;;;;;-0.67;100.00;100852.66;4987539;28;20030;-79
2023/12/04 05:26:08;;;;;;;24.15;8.95;;;;;;;-0.65;100.00;100853.22;4995254;28;20076;-80
2023/12/04 05:28:34;;;;;;;23.80;8.73;;;;;;;-0.64;100.00;100855.75;4981531;28;20046;-80
2023/12/04 05:31:00;;;;;;;24.20;8.15;;;;;;;-0.69;100.00;100842.00;4981950;28;20031;-80
2023/12/04 05:33:25;;;;;;;24.38;8.30;;;;;;;-0.63;100.00;100845.69;4986712;28;20039;-80
2023/12/04 05:35:53;;;;;;;25.10;8.65;;;;;;;-0.61;100.00;100845.47;4970885;28;20022;-80
2023/12/04 05:38:19;;;;;;;23.63;7.90;;;;;;;-0.61;100.00;100832.69;4983389;28;20034;-80
2023/12/04 05:40:45;;;;;;;25.13;8.65;;;;;;;-0.58;100.00;100829.53;4990565;28;20385;-81
2023/12/04 05:43:10;;;;;;;23.45;8.50;;;;;;;-0.56;100.00;100834.72;4988822;28;20470;-79
2023/12/04 05:45:35;;;;;;;24.05;8.00;;;;;;;-0.56;100.00;100837.44;4990512;28;20104;-80
2023/12/04 05:48:01;;;;;;;24.27;7.97;;;;;;;-0.56;100.00;100821.94;4989544;28;20100;-79
2023/12/04 05:50:26;;;;;;;24.23;8.20;;;;;;;-0.60;100.00;100820.78;4989675;28;20113;-80
2023/12/04 05:52:54;;;;;;;22.33;7.95;;;;;;;-0.63;100.00;100821.22;4989309;28;20041;-79
2023/12/04 05:55:20;;;;;;;21.40;7.20;;;;;;;-0.58;100.00;100826.81;4969654;28;20525;-80
2023/12/04 05:57:46;;;;;;;23.20;8.85;;;;;;;-0.59;100.00;100821.59;4971044;28;20086;-81
2023/12/04 06:00:12;;;;;;;23.75;8.00;;;;;;;-0.64;100.00;100823.13;4985184;28;20401;-80
2023/12/04 06:02:44;;;;;;;24.52;7.72;;;;;;;-0.63;100.00;100834.81;4989056;28;20066;-80
2023/12/04 06:05:10;;;;;;;24.08;8.35;;;;;;;-0.65;100.00;100840.50;4989717;28;20496;-79
2023/12/04 06:07:38;;;;;;;23.85;7.80;;;;;;;-0.61;100.00;100819.13;4986672;28;20065;-80
2023/12/04 06:10:04;;;;;;;22.65;7.90;;;;;;;-0.62;100.00;100817.44;4989665;28;20084;-79
2023/12/04 06:12:30;;;;;;;24.08;7.90;;;;;;;-0.61;100.00;100823.72;4989732;28;20042;-80
2023/12/04 06:14:55;;;;;;;22.08;7.70;;;;;;;-0.60;100.00;100817.22;4989513;28;20389;-80
2023/12/04 06:17:21;;;;;;;23.08;7.32;;;;;;;-0.60;100.00;100811.78;4973170;28;20030;-81
2023/12/04 06:19:46;;;;;;;24.60;7.65;;;;;;;-0.58;100.00;100815.09;4975447;28;20065;-79
2023/12/04 06:22:12;;;;;;;22.77;7.95;;;;;;;-0.59;100.00;100805.28;4970634;28;20379;-80
2023/12/04 06:24:37;;;;;;;22.27;7.40;;;;;;;-0.57;100.00;100792.28;4989101;28;20034;-81
2023/12/04 06:27:05;;;;;;;21.95;7.68;;;;;;;-0.56;100.00;100791.25;4988744;28;20027;-80
2023/12/04 06:29:30;;;;;;;22.73;8.20;;;;;;;-0.60;100.00;100788.16;4988516;28;20109;-80
2023/12/04 06:31:56;;;;;;;21.80;7.53;;;;;;;-0.58;100.00;100780.63;4970085;28;20529;-80
2023/12/04 06:34:22;;;;;;;22.20;6.57;;;;;;;-0.55;100.00;100771.16;4984405;28;20046;-80
2023/12/04 06:36:47;;;;;;;22.50;6.85;;;;;;;-0.56;100.00;100777.66;4988443;28;20040;-79
2023/12/04 06:39:13;;;;;;;20.02;6.32;;;;;;;-0.52;100.00;100762.56;4979752;28;20146;-79
2023/12/04 06:41:48;;;;;;;22.77;7.78;;;;;;;-0.51;100.00;100756.03;4980909;28;20049;-79
2023/12/04 06:44:13;;;;;;;21.55;6.88;;;;;;;-0.55;100.00;100758.38;4986976;28;20118;-79
2023/12/04 06:46:41;;;;;;;20.10;6.35;;;;;;;-0.54;100.00;100746.47;4987933;28;20038;-80
2023/12/04 06:49:07;;;;;;;20.92;7.00;;;;;;;-0.57;100.00;100738.78;4980839;28;20301;-80
2023/12/04 06:51:33;;;;;;;22.38;6.93;;;;;;;-0.59;100.00;100742.78;4987071;28;20058;-78
2023/12/04 06:53:58;;;;;;;21.42;7.22;;;;;;;-0.57;100.00;100741.50;4975254;28;20304;-78
2023/12/04 06:56:23;;;;;;;20.65;6.47;;;;;;;-0.56;100.00;100735.00;4971810;28;20038;-79
2023/12/04 06:58:48;;;;;;;20.38;6.07;;;;;;;-0.58;100.00;100729.00;4980180;28;20421;-79
2023/12/04 07:01:14;;;;;;;19.50;6.25;;;;;;;-0.59;100.00;100729.19;4987031;28;20038;-78
2023/12/04 07:03:39;;;;;;;22.05;6.78;;;;;;;-0.55;100.00;100725.78;4987006;28;20070;-79
2023/12/04 07:06:05;;;;;;;19.55;6.03;;;;;;;-0.56;100.00;100713.25;4985596;28;20030;-78
2023/12/04 07:08:30;;;;;;;21.67;6.22;;;;;;;-0.55;100.00;100712.19;4983094;28;20397;-80
2023/12/04 07:10:55;;;;;;;19.95;6.18;;;;;;;-0.60;100.00;100705.81;4986304;28;20122;-79
2023/12/04 07:13:21;;;;;;;21.77;7.15;;;;;;;-0.58;100.00;100723.56;4985825;28;20038;-80
2023/12/04 07:15:46;;;;;;;21.00;6.75;;;;;;;-0.57;100.00;100725.22;4987009;28;20045;-80
2023/12/04 07:18:11;;;;;;;20.35;6.70;;;;;;;-0.56;100.00;100735.00;4968591;28;20061;-80
2023/12/04 07:20:37;;;;;;;22.67;6.72;;;;;;;-0.58;100.00;100739.84;4973993;28;20038;-80
2023/12/04 07:23:02;;;;;;;20.55;6.30;;;;;;;-0.58;100.00;100739.00;4984974;28;20035;-79
2023/12/04 07:25:27;;;;;;;20.58;6.20;;;;;;;-0.56;100.00;100729.56;4980051;28;20087;-80
2023/12/04 07:27:53;;;;;;;21.27;6.53;;;;;;;-0.54;100.00;100730.16;4985732;28;20030;-80
2023/12/04 07:30:18;;;;;;;20.83;6.18;;;;;;;-0.55;100.00;100728.50;4986701;28;20038;-79
2023/12/04 07:32:43;;;;;;;20.88;6.32;;;;;;;-0.51;100.00;100732.41;4986649;28;20476;-80
2023/12/04 07:35:09;;;;;;;20.05;5.97;;;;;;;-0.51;100.00;100735.13;4976709;28;20423;-79
2023/12/04 07:37:34;;;;;;;19.85;5.93;;;;;;;-0.50;100.00;100734.06;4967600;28;20035;-80
2023/12/04 07:40:00;;;;;;;19.20;6.50;;;;;;;-0.49;100.00;100730.28;4968594;28;20031;-79
2023/12/04 07:42:25;;;;;;;21.10;6.65;;;;;;;-0.48;100.00;100731.09;4976882;28;20035;-80
2023/12/04 07:44:50;;;;;;;20.88;6.28;;;;;;;-0.49;100.00;100732.16;4972687;28;20090;-80
2023/12/04 07:47:16;;;;;;;19.40;6.40;;;;;;;-0.46;100.00;100729.00;4972773;28;20055;-82
2023/12/04 07:49:42;;;;;;;22.25;5.80;;;;;;;-0.41;100.00;100733.72;5027874;23;20150;-66
2023/12/04 07:52:08;;;;;;;21.27;6.47;;;;;;;-0.42;100.00;100737.50;5033305;28;20052;-66
2023/12/04 07:54:33;;;;;;;19.65;6.32;;;;;;;-0.41;100.00;100739.97;5033777;28;20118;-66
2023/12/04 07:56:59;;;;;;;20.55;6.00;;;;;;;-0.40;100.00;100738.09;5019846;28;20464;-65
2023/12/04 07:59:24;;;;;;;19.42;6.53;;;;;;;-0.41;100.00;100731.00;5030027;28;20081;-65
2023/12/04 08:01:50;;;;;;;20.83;5.78;;;;;;;-0.38;100.00;100725.91;5028373;28;20117;-65
2023/12/04 08:04:15;;;;;;;19.88;6.13;;;;;;;-0.35;100.00;100725.47;5037747;28;20551;-66
2023/12/04 08:06:41;;;;;;;18.48;5.72;;;;;;;-0.34;100.00;100729.84;5022246;28;20059;-66
2023/12/04 08:09:09;;;;;;;19.35;5.75;;;;;;;-0.32;100.00;100722.25;5032572;28;20055;-65
2023/12/04 08:11:35;;;;;;;19.45;6.28;;;;;;;-0.31;100.00;100725.81;5032584;28;20170;-65
2023/12/04 08:14:00;;;;;;;19.75;6.45;;;;;;;-0.27;100.00;100726.16;5024871;28;20392;-65
2023/12/04 08:16:28;;;;;;;18.65;5.55;;;;;;;-0.26;100.00;100715.03;5029863;28;20033;-65
2023/12/04 08:18:54;;;;;;;20.20;6.13;;;;;;;-0.21;100.00;100704.28;5028080;28;20042;-66
2023/12/04 08:21:19;;;;;;;19.27;5.60;;;;;;;-0.24;100.00;100707.47;5025243;28;20105;-65
2023/12/04 08:23:44;;;;;;;18.67;5.93;;;;;;;-0.16;100.00;100703.56;5040648;28;20385;-67
2023/12/04 08:26:09;;;;;;;17.75;5.68;;;;;;;-0.16;100.00;100696.22;5017779;28;20113;-65
2023/12/04 08:28:36;;;;;;;20.00;5.78;;;;;;;-0.15;100.00;100697.06;5014601;28;20451;-66
2023/12/04 08:31:04;;;;;;;20.88;6.18;;;;;;;-0.10;100.00;100697.19;5024724;28;20772;-66
2023/12/04 08:33:30;;;;;;;19.80;5.40;;;;;;;-0.06;100.00;100690.22;5024788;28;20048;-66
2023/12/04 08:35:55;;;;;;;19.27;5.65;;;;;;;-0.06;100.00;100684.78;5024606;28;20030;-66
2023/12/04 08:38:20;;;;;;;19.10;5.43;;;;;;;-0.06;100.00;100690.22;5034704;28;20029;-66
2023/12/04 08:40:46;;;;;;;18.55;5.68;;;;;;;-0.05;100.00;100686.41;5031161;28;20094;-66
2023/12/04 08:43:11;;;;;;;19.08;5.45;;;;;;;-0.07;100.00;100685.00;5030927;28;20581;-66
2023/12/04 08:45:36;;;;;;;19.10;5.65;;;;;;;-0.05;100.00;100678.22;5012763;28;20404;-66
2023/12/04 08:48:02;;;;;;;19.02;5.45;;;;;;;-0.06;100.00;100673.88;5029613;28;20037;-65
2023/12/04 08:50:27;;;;;;;20.05;5.50;;;;;;;-0.04;100.00;100682.63;5013295;28;20038;-65
2023/12/04 08:52:52;;;;;;;19.50;5.50;;;;;;;-0.04;100.00;100665.47;5024776;28;20029;-66
2023/12/04 08:55:18;;;;;;;18.92;6.10;;;;;;;-0.01;100.00;100670.44;5028405;28;20038;-67
2023/12/04 08:57:44;;;;;;;19.77;6.60;;;;;;;0.02;100.00;100660.97;5032170;28;20033;-66
2023/12/04 09:00:09;;;;;;;20.85;5.50;;;;;;;0.03;100.00;100662.63;5050105;28;20098;-66
2023/12/04 09:02:35;;;;;;;18.52;5.60;;;;;;;0.04;100.00;100656.13;5028941;28;20445;-67
2023/12/04 09:05:00;;;;;;;19.17;6.00;;;;;;;0.06;100.00;100656.69;5026569;28;20555;-68
2023/12/04 09:07:26;;;;;;;19.08;5.60;;;;;;;0.09;100.00;100646.19;5022606;28;20110;-68
2023/12/04 09:09:51;;;;;;;19.02;5.70;;;;;;;0.12;100.00;100645.69;5026592;28;20516;-63
2023/12/04 09:12:17;;;;;;;18.27;5.45;;;;;;;0.15;100.00;100642.50;5027667;28;20072;-63
2023/12/04 09:14:42;;;;;;;18.90;5.55;;;;;;;0.22;100.00;100647.78;5031879;28;20029;-63
2023/12/04 09:17:08;;;;;;;19.98;6.43;;;;;;;0.24;100.00;100642.09;5031653;28;20330;-63
2023/12/04 09:19:33;;;;;;;19.15;5.82;;;;;;;0.24;100.00;100645.63;5031579;28;20025;-63
2023/12/04 09:21:58;;;;;;;19.70;6.78;;;;;;;0.26;100.00;100638.06;5031540;28;20405;-63
2023/12/04 09:24:23;;;;;;;18.70;5.93;;;;;;;0.29;100.00;100647.63;5031527;28;20033;-63
2023/12/04 09:26:49;;;;;;;20.05;6.32;;;;;;;0.25;100.00;100647.28;5010822;28;20140;-63
2023/12/04 09:29:16;;;;;;;19.13;6.07;;;;;;;0.29;100.00;100643.03;5029926;28;20426;-64
2023/12/04 09:31:42;;;;;;;22.90;6.60;;;;;;;0.30;100.00;100636.53;5028450;28;20703;-63
2023/12/04 09:34:08;;;;;;;22.70;7.45;;;;;;;0.29;100.00;100637.59;5033769;28;20071;-64
2023/12/04 09:36:34;;;;;;;22.25;6.82;;;;;;;0.32;100.00;100644.44;5017665;28;20038;-64
2023/12/04 09:38:59;;;;;;;21.40;6.80;;;;;;;0.36;100.00;100640.16;5031820;28;20444;-63
2023/12/04 09:41:25;;;;;;;20.88;6.70;;;;;;;0.38;100.00;100640.72;5027396;28;20449;-64
2023/12/04 09:43:51;;;;;;;20.25;6.72;;;;;;;0.38;100.00;100640.72;5034987;28;20139;-64
2023/12/04 09:46:17;;;;;;;19.85;6.55;;;;;;;0.41;100.00;100637.53;5035813;28;20060;-63
2023/12/04 09:48:43;;;;;;;20.63;6.82;;;;;;;0.45;100.00;100638.72;5026092;28;20571;-64
2023/12/04 09:51:09;;;;;;;21.50;6.68;;;;;;;0.46;100.00;100639.53;5018712;28;20060;-63
2023/12/04 09:53:35;;;;;;;20.60;6.85;;;;;;;0.48;100.00;100637.38;5032878;28;20068;-64
2023/12/04 09:56:03;;;;;;;21.48;7.32;;;;;;;0.55;100.00;100629.09;5050221;28;20033;-63
2023/12/04 09:58:30;;;;;;;20.80;6.78;;;;;;;0.57;100.00;100627.75;5045786;28;20040;-63
2023/12/04 10:00:56;;;;;;;21.88;7.22;;;;;;;0.57;100.00;100622.31;5049971;28;20056;-64
2023/12/04 10:03:22;;;;;;;20.98;7.15;;;;;;;0.59;100.00;100625.63;5039727;28;20515;-64
2023/12/04 10:05:48;;;;;;;21.25;6.68;;;;;;;0.60;100.00;100621.84;5050215;28;20029;-64
2023/12/04 10:08:14;;;;;;;21.73;7.25;;;;;;;0.62;100.00;100624.31;5044093;28;20060;-63
2023/12/04 10:10:39;;;;;;;21.88;7.68;;;;;;;0.64;100.00;100613.16;5030052;28;20487;-62
2023/12/04 10:13:04;;;;;;;20.52;7.18;;;;;;;0.66;100.00;100611.88;5030073;28;20488;-64
2023/12/04 10:15:30;;;;;;;22.15;7.63;;;;;;;0.71;100.00;100614.66;5030065;28;20026;-63
2023/12/04 10:17:55;;;;;;;21.40;7.70;;;;;;;0.70;100.00;100604.84;5030050;28;20028;-63
2023/12/04 10:20:21;;;;;;;19.83;6.38;;;;;;;0.71;100.00;100601.03;5022718;28;20030;-65
2023/12/04 10:23:01;;;;;;;21.15;7.47;;;;;;;0.73;100.00;100598.06;5011599;28;20038;-63
2023/12/04 10:25:29;;;;;;;23.08;7.88;;;;;;;0.79;100.00;100594.38;5029896;28;20033;-63
2023/12/04 10:28:12;;;;;;;21.48;8.05;;;;;;;0.85;100.00;100592.56;5019247;28;20034;-63
2023/12/04 10:30:38;;;;;;;21.88;8.00;;;;;;;0.83;100.00;100590.06;5008063;28;20041;-64
2023/12/04 10:33:05;;;;;;;21.63;7.47;;;;;;;0.87;100.00;100579.50;5013149;28;20792;-63
2023/12/04 10:35:32;;;;;;;22.27;7.88;;;;;;;0.87;100.00;100572.19;5029747;28;20044;-63
2023/12/04 10:37:59;;;;;;;21.88;7.85;;;;;;;0.96;100.00;100580.75;5029517;28;20041;-63
2023/12/04 10:40:29;;;;;;;22.58;7.88;;;;;;;1.05;100.00;100562.09;5029642;28;20034;-63
2023/12/04 10:43:12;;;;;;;22.08;7.50;;;;;;;1.03;100.00;100554.19;5024365;28;20064;-62
2023/12/04 10:45:44;;;;;;;23.13;8.17;;;;;;;1.06;100.00;100559.09;5029282;28;20030;-63
2023/12/04 10:48:10;;;;;;;21.40;8.55;;;;;;;1.10;100.00;100548.53;5032217;28;20299;-63
2023/12/04 10:50:40;;;;;;;22.35;8.35;;;;;;;1.16;100.00;100547.53;5031541;28;20037;-65
2023/12/04 10:53:07;;;;;;;21.92;7.70;;;;;;;1.16;100.00;100543.97;5040551;28;20128;-64
2023/12/04 10:55:33;;;;;;;24.80;8.70;;;;;;;1.18;100.00;100541.84;5029144;28;20405;-65
2023/12/04 10:58:05;;;;;;;20.95;7.93;;;;;;;1.23;100.00;100534.56;5029168;28;20469;-64
2023/12/04 11:00:33;;;;;;;21.85;7.80;;;;;;;1.24;100.00;100527.19;5027120;28;20053;-64
2023/12/04 11:03:04;;;;;;;22.40;7.95;;;;;;;1.24;100.00;100521.75;5021397;28;20072;-64
2023/12/04 11:05:32;;;;;;;23.75;8.68;;;;;;;1.31;100.00;100519.69;5022598;28;20086;-64